Alsea, Oregon
Current Conditions -  °F | °C
As of 5:55 PM on Tuesday 25 Nov 2014 (Local Time) from KCVO Reporting Station
Overcast Overcast  
Wind Chill: 57°   Ceiling: 5000
Heat Index: 57°   Visibility: 10mi
Dew Point: 54°   Wind: 7mph
Humidity: 88%   Direction: 190°S
Pressure: 30.36"   Gusts: NA
Location:  44.38°N, 123.6°W
Report Text: KCVO 260155Z AUTO 19006KT 10SM FEW035 OVC050 14/12 A3036 RMK AO1
Loading
Personal Weather Stations






























Interactive Weather Map New forecast layout! Learn more

10-Day Weather Forecast

Advertisements
Track Severe Weather on mobile